sensor_id;sensor_type;location;lat;lon;timestamp;pressure;altitude;pressure_sealevel;temperature;humidity
59654;BME280;66556;52.008;5.432;2023-05-21T00:02:11;101899.0;;;37.03;17.75
59654;BME280;66556;52.008;5.432;2023-05-21T00:03:47;101898.0;;;37.1;17.63
59654;BME280;66556;52.008;5.432;2023-05-21T00:05:24;101898.0;;;37.22;17.64
59654;BME280;66556;52.008;5.432;2023-05-21T00:08:36;101897.0;;;37.32;17.61
59654;BME280;66556;52.008;5.432;2023-05-21T00:10:12;101900.0;;;37.35;17.48
59654;BME280;66556;52.008;5.432;2023-05-21T00:11:49;101899.0;;;36.92;17.98
59654;BME280;66556;52.008;5.432;2023-05-21T00:13:25;101897.0;;;37.04;17.77
59654;BME280;66556;52.008;5.432;2023-05-21T00:16:39;101893.0;;;37.62;17.45
59654;BME280;66556;52.008;5.432;2023-05-21T00:18:15;101894.0;;;37.08;17.81
59654;BME280;66556;52.008;5.432;2023-05-21T00:19:51;101896.0;;;37.31;17.66
59654;BME280;66556;52.008;5.432;2023-05-21T00:23:04;101893.0;;;36.99;17.95
59654;BME280;66556;52.008;5.432;2023-05-21T00:24:40;101885.0;;;37.37;17.73
59654;BME280;66556;52.008;5.432;2023-05-21T00:26:16;101884.0;;;37.28;17.7
59654;BME280;66556;52.008;5.432;2023-05-21T00:29:29;101883.0;;;37.24;17.75
59654;BME280;66556;52.008;5.432;2023-05-21T00:31:06;101874.0;;;37.42;17.66
59654;BME280;66556;52.008;5.432;2023-05-21T00:32:42;101872.0;;;37.07;17.89
59654;BME280;66556;52.008;5.432;2023-05-21T00:34:18;101878.0;;;37.37;17.64
59654;BME280;66556;52.008;5.432;2023-05-21T00:37:30;101875.0;;;37.28;17.7
59654;BME280;66556;52.008;5.432;2023-05-21T00:39:07;101875.0;;;37.14;17.77
59654;BME280;66556;52.008;5.432;2023-05-21T00:40:43;101869.0;;;37.17;17.7
59654;BME280;66556;52.008;5.432;2023-05-21T00:43:55;101873.0;;;37.31;17.66
59654;BME280;66556;52.008;5.432;2023-05-21T00:45:32;101873.0;;;36.81;18.12
59654;BME280;66556;52.008;5.432;2023-05-21T00:47:09;101868.0;;;36.82;18.3
59654;BME280;66556;52.008;5.432;2023-05-21T00:50:22;101863.0;;;37.17;17.93
59654;BME280;66556;52.008;5.432;2023-05-21T00:51:58;101862.0;;;37.15;17.89
59654;BME280;66556;52.008;5.432;2023-05-21T00:53:35;101866.0;;;36.81;18.21
59654;BME280;66556;52.008;5.432;2023-05-21T00:55:12;101863.0;;;36.56;18.34
59654;BME280;66556;52.008;5.432;2023-05-21T00:58:25;101866.0;;;36.69;18.36
59654;BME280;66556;52.008;5.432;2023-05-21T01:00:04;101866.0;;;36.58;18.23
59654;BME280;66556;52.008;5.432;2023-05-21T01:01:42;101868.0;;;36.39;18.52
59654;BME280;66556;52.008;5.432;2023-05-21T01:04:57;101863.0;;;36.5;18.53
59654;BME280;66556;52.008;5.432;2023-05-21T01:06:33;101860.0;;;36.29;18.5
59654;BME280;66556;52.008;5.432;2023-05-21T01:08:09;101861.0;;;36.49;18.59
59654;BME280;66556;52.008;5.432;2023-05-21T01:11:28;101853.0;;;36.94;18.14
59654;BME280;66556;52.008;5.432;2023-05-21T01:13:13;101860.0;;;36.58;18.61
59654;BME280;66556;52.008;5.432;2023-05-21T01:14:50;101859.0;;;36.37;18.53
59654;BME280;66556;52.008;5.432;2023-05-21T01:16:27;101859.0;;;36.42;18.61
59654;BME280;66556;52.008;5.432;2023-05-21T01:19:40;101856.0;;;36.46;18.61
59654;BME280;66556;52.008;5.432;2023-05-21T01:21:19;101855.0;;;36.74;18.28
59654;BME280;66556;52.008;5.432;2023-05-21T01:22:56;101850.0;;;36.57;18.53
59654;BME280;66556;52.008;5.432;2023-05-21T01:24:34;101849.0;;;36.49;18.56
59654;BME280;66556;52.008;5.432;2023-05-21T01:27:46;101851.0;;;36.67;18.59
59654;BME280;66556;52.008;5.432;2023-05-21T01:29:23;101851.0;;;36.56;18.5
59654;BME280;66556;52.008;5.432;2023-05-21T01:31:10;101846.0;;;36.4;18.59
59654;BME280;66556;52.008;5.432;2023-05-21T01:33:01;101845.0;;;36.24;18.87
59654;BME280;66556;52.008;5.432;2023-05-21T01:36:29;101843.0;;;36.46;18.82
59654;BME280;66556;52.008;5.432;2023-05-21T01:38:12;101843.0;;;36.39;18.77
59654;BME280;66556;52.008;5.432;2023-05-21T01:39:51;101848.0;;;36.25;18.96
59654;BME280;66556;52.008;5.432;2023-05-21T01:41:34;101840.0;;;35.79;19.27
59654;BME280;66556;52.008;5.432;2023-05-21T01:44:52;101841.0;;;36.49;18.73
59654;BME280;66556;52.008;5.432;2023-05-21T01:46:32;101839.0;;;36.58;18.66
59654;BME280;66556;52.008;5.432;2023-05-21T01:48:10;101843.0;;;36.25;18.97
59654;BME280;66556;52.008;5.432;2023-05-21T01:49:48;101838.0;;;36.49;18.8
59654;BME280;66556;52.008;5.432;2023-05-21T01:53:02;101836.0;;;35.96;19.29
59654;BME280;66556;52.008;5.432;2023-05-21T01:54:38;101843.0;;;35.71;19.43
59654;BME280;66556;52.008;5.432;2023-05-21T01:56:14;101845.0;;;36.03;19.18
59654;BME280;66556;52.008;5.432;2023-05-21T01:59:28;101845.0;;;35.87;19.23
59654;BME280;66556;52.008;5.432;2023-05-21T02:01:05;101841.0;;;36.12;19.22
59654;BME280;66556;52.008;5.432;2023-05-21T02:02:41;101844.0;;;36.08;19.2
59654;BME280;66556;52.008;5.432;2023-05-21T02:04:18;101841.0;;;36.58;18.91
59654;BME280;66556;52.008;5.432;2023-05-21T02:07:30;101841.0;;;36.49;18.79
59654;BME280;66556;52.008;5.432;2023-05-21T02:09:06;101840.0;;;36.03;19.18
59654;BME280;66556;52.008;5.432;2023-05-21T02:10:42;101841.0;;;36.28;19.04
59654;BME280;66556;52.008;5.432;2023-05-21T02:13:55;101840.0;;;36.03;19.28
59654;BME280;66556;52.008;5.432;2023-05-21T02:15:32;101834.0;;;36.11;19.18
59654;BME280;66556;52.008;5.432;2023-05-21T02:17:09;101835.0;;;36.43;18.86
59654;BME280;66556;52.008;5.432;2023-05-21T02:20:21;101836.0;;;35.96;19.39
59654;BME280;66556;52.008;5.432;2023-05-21T02:21:57;101836.0;;;35.62;19.73
59654;BME280;66556;52.008;5.432;2023-05-21T02:25:11;101831.0;;;36.37;18.84
59654;BME280;66556;52.008;5.432;2023-05-21T02:28:24;101835.0;;;35.96;19.37
59654;BME280;66556;52.008;5.432;2023-05-21T02:30:01;101834.0;;;36.37;19.06
59654;BME280;66556;52.008;5.432;2023-05-21T02:31:38;101833.0;;;36.29;19.06
59654;BME280;66556;52.008;5.432;2023-05-21T02:34:51;101839.0;;;36.31;19.11
59654;BME280;66556;52.008;5.432;2023-05-21T02:36:27;101842.0;;;36.14;19.43
59654;BME280;66556;52.008;5.432;2023-05-21T02:38:03;101838.0;;;36.33;19.04
59654;BME280;66556;52.008;5.432;2023-05-21T02:41:16;101839.0;;;36.43;19.05
59654;BME280;66556;52.008;5.432;2023-05-21T02:42:52;101838.0;;;36.68;18.8
59654;BME280;66556;52.008;5.432;2023-05-21T02:44:28;101836.0;;;36.46;19.03
59654;BME280;66556;52.008;5.432;2023-05-21T02:46:05;101835.0;;;36.1;19.34
59654;BME280;66556;52.008;5.432;2023-05-21T02:49:18;101836.0;;;36.28;19.31
59654;BME280;66556;52.008;5.432;2023-05-21T02:50:54;101832.0;;;36.35;19.25
59654;BME280;66556;52.008;5.432;2023-05-21T02:52:30;101832.0;;;36.22;19.3
59654;BME280;66556;52.008;5.432;2023-05-21T02:55:42;101831.0;;;36.46;19.12
59654;BME280;66556;52.008;5.432;2023-05-21T02:57:18;101828.0;;;36.35;19.06
59654;BME280;66556;52.008;5.432;2023-05-21T02:58:55;101830.0;;;35.93;19.52
59654;BME280;66556;52.008;5.432;2023-05-21T03:02:07;101825.0;;;36.21;19.28
59654;BME280;66556;52.008;5.432;2023-05-21T03:03:43;101826.0;;;36.51;19.0
59654;BME280;66556;52.008;5.432;2023-05-21T03:05:20;101830.0;;;36.35;19.25
59654;BME280;66556;52.008;5.432;2023-05-21T03:08:32;101828.0;;;36.39;19.2
59654;BME280;66556;52.008;5.432;2023-05-21T03:10:09;101835.0;;;36.06;19.59
59654;BME280;66556;52.008;5.432;2023-05-21T03:11:45;101828.0;;;35.69;19.95
59654;BME280;66556;52.008;5.432;2023-05-21T03:13:21;101827.0;;;36.21;19.52
59654;BME280;66556;52.008;5.432;2023-05-21T03:16:34;101824.0;;;36.21;19.45
59654;BME280;66556;52.008;5.432;2023-05-21T03:18:10;101827.0;;;35.53;20.13
59654;BME280;66556;52.008;5.432;2023-05-21T03:19:46;101826.0;;;35.54;20.09
59654;BME280;66556;52.008;5.432;2023-05-21T03:22:59;101826.0;;;35.89;19.89
59654;BME280;66556;52.008;5.432;2023-05-21T03:24:35;101825.0;;;35.56;20.16
59654;BME280;66556;52.008;5.432;2023-05-21T03:26:11;101824.0;;;35.64;20.14
59654;BME280;66556;52.008;5.432;2023-05-21T03:29:23;101821.0;;;35.33;20.41
59654;BME280;66556;52.008;5.432;2023-05-21T03:31:00;101822.0;;;35.92;19.95
59654;BME280;66556;52.008;5.432;2023-05-21T03:32:36;101815.0;;;35.79;20.2
59654;BME280;66556;52.008;5.432;2023-05-21T03:34:13;101820.0;;;35.6;20.27
59654;BME280;66556;52.008;5.432;2023-05-21T03:37:25;101818.0;;;35.67;20.25
59654;BME280;66556;52.008;5.432;2023-05-21T03:39:02;101813.0;;;35.58;20.36
59654;BME280;66556;52.008;5.432;2023-05-21T03:40:38;101811.0;;;35.11;20.83
59654;BME280;66556;52.008;5.432;2023-05-21T03:43:50;101812.0;;;35.76;20.21
59654;BME280;66556;52.008;5.432;2023-05-21T03:45:26;101810.0;;;36.03;19.93
59654;BME280;66556;52.008;5.432;2023-05-21T03:47:03;101806.0;;;35.79;20.09
59654;BME280;66556;52.008;5.432;2023-05-21T03:50:15;101805.0;;;35.87;20.16
59654;BME280;66556;52.008;5.432;2023-05-21T03:51:51;101805.0;;;36.21;19.84
59654;BME280;66556;52.008;5.432;2023-05-21T03:53:27;101809.0;;;35.56;20.45
59654;BME280;66556;52.008;5.432;2023-05-21T03:56:40;101809.0;;;35.53;20.52
59654;BME280;66556;52.008;5.432;2023-05-21T03:58:17;101806.0;;;36.0;19.95
59654;BME280;66556;52.008;5.432;2023-05-21T03:59:53;101811.0;;;35.86;20.18
59654;BME280;66556;52.008;5.432;2023-05-21T04:01:29;101808.0;;;35.92;20.16
59654;BME280;66556;52.008;5.432;2023-05-21T04:04:42;101806.0;;;35.28;20.95
59654;BME280;66556;52.008;5.432;2023-05-21T04:06:18;101807.0;;;35.4;20.78
59654;BME280;66556;52.008;5.432;2023-05-21T04:07:54;101811.0;;;35.56;20.54
59654;BME280;66556;52.008;5.432;2023-05-21T04:11:06;101811.0;;;35.6;20.7
59654;BME280;66556;52.008;5.432;2023-05-21T04:12:42;101807.0;;;35.96;20.34
59654;BME280;66556;52.008;5.432;2023-05-21T04:14:19;101810.0;;;35.94;20.12
59654;BME280;66556;52.008;5.432;2023-05-21T04:17:31;101816.0;;;35.22;20.94
59654;BME280;66556;52.008;5.432;2023-05-21T04:19:07;101818.0;;;35.39;20.95
59654;BME280;66556;52.008;5.432;2023-05-21T04:20:43;101818.0;;;35.86;20.38
59654;BME280;66556;52.008;5.432;2023-05-21T04:22:20;101820.0;;;35.57;20.7
59654;BME280;66556;52.008;5.432;2023-05-21T04:25:32;101817.0;;;35.74;20.61
59654;BME280;66556;52.008;5.432;2023-05-21T04:27:08;101816.0;;;35.36;20.99
59654;BME280;66556;52.008;5.432;2023-05-21T04:28:44;101816.0;;;35.32;21.16
59654;BME280;66556;52.008;5.432;2023-05-21T04:31:57;101812.0;;;35.68;20.59
59654;BME280;66556;52.008;5.432;2023-05-21T04:33:33;101813.0;;;35.78;20.67
59654;BME280;66556;52.008;5.432;2023-05-21T04:35:09;101817.0;;;35.64;20.87
59654;BME280;66556;52.008;5.432;2023-05-21T04:38:23;101815.0;;;35.78;20.67
59654;BME280;66556;52.008;5.432;2023-05-21T04:39:59;101810.0;;;35.37;21.11
59654;BME280;66556;52.008;5.432;2023-05-21T04:41:36;101812.0;;;35.42;21.24
59654;BME280;66556;52.008;5.432;2023-05-21T04:44:49;101816.0;;;35.71;20.85
59654;BME280;66556;52.008;5.432;2023-05-21T04:46:26;101814.0;;;35.44;21.08
59654;BME280;66556;52.008;5.432;2023-05-21T04:48:02;101814.0;;;35.75;20.84
59654;BME280;66556;52.008;5.432;2023-05-21T04:49:38;101817.0;;;35.14;21.29
59654;BME280;66556;52.008;5.432;2023-05-21T04:52:50;101815.0;;;35.39;21.4
59654;BME280;66556;52.008;5.432;2023-05-21T04:54:27;101815.0;;;35.81;20.82
59654;BME280;66556;52.008;5.432;2023-05-21T04:56:04;101818.0;;;35.58;21.17
59654;BME280;66556;52.008;5.432;2023-05-21T04:59:17;101815.0;;;35.49;21.2
59654;BME280;66556;52.008;5.432;2023-05-21T05:00:53;101821.0;;;35.61;20.98
59654;BME280;66556;52.008;5.432;2023-05-21T05:02:29;101822.0;;;35.32;21.3
59654;BME280;66556;52.008;5.432;2023-05-21T05:05:43;101826.0;;;35.75;21.07
59654;BME280;66556;52.008;5.432;2023-05-21T05:07:19;101824.0;;;35.71;21.07
59654;BME280;66556;52.008;5.432;2023-05-21T05:08:55;101827.0;;;35.6;21.33
59654;BME280;66556;52.008;5.432;2023-05-21T05:10:31;101828.0;;;35.62;21.25
59654;BME280;66556;52.008;5.432;2023-05-21T05:13:44;101828.0;;;35.9;20.89
59654;BME280;66556;52.008;5.432;2023-05-21T05:15:20;101827.0;;;35.74;21.04
59654;BME280;66556;52.008;5.432;2023-05-21T05:16:57;101827.0;;;35.82;21.11
59654;BME280;66556;52.008;5.432;2023-05-21T05:20:10;101828.0;;;36.07;20.82
59654;BME280;66556;52.008;5.432;2023-05-21T05:21:47;101827.0;;;35.6;21.38
59654;BME280;66556;52.008;5.432;2023-05-21T05:23:23;101824.0;;;36.25;20.83
59654;BME280;66556;52.008;5.432;2023-05-21T05:26:36;101820.0;;;36.82;20.23
59654;BME280;66556;52.008;5.432;2023-05-21T05:28:13;101820.0;;;36.74;20.25
59654;BME280;66556;52.008;5.432;2023-05-21T05:29:49;101821.0;;;36.71;20.37
59654;BME280;66556;52.008;5.432;2023-05-21T05:31:25;101823.0;;;36.56;20.54
59654;BME280;66556;52.008;5.432;2023-05-21T05:34:37;101823.0;;;36.28;20.77
59654;BME280;66556;52.008;5.432;2023-05-21T05:36:14;101824.0;;;36.49;20.68
59654;BME280;66556;52.008;5.432;2023-05-21T05:37:50;101818.0;;;36.78;20.2
59654;BME280;66556;52.008;5.432;2023-05-21T05:41:02;101818.0;;;36.92;20.31
59654;BME280;66556;52.008;5.432;2023-05-21T05:42:38;101822.0;;;36.11;20.95
59654;BME280;66556;52.008;5.432;2023-05-21T05:44:14;101822.0;;;36.12;20.99
59654;BME280;66556;52.008;5.432;2023-05-21T05:47:27;101816.0;;;36.99;20.32
59654;BME280;66556;52.008;5.432;2023-05-21T05:49:03;101813.0;;;37.14;20.34
59654;BME280;66556;52.008;5.432;2023-05-21T05:50:39;101815.0;;;37.03;20.16
59654;BME280;66556;52.008;5.432;2023-05-21T05:52:15;101815.0;;;36.24;21.0
59654;BME280;66556;52.008;5.432;2023-05-21T05:55:28;101814.0;;;36.56;20.61
59654;BME280;66556;52.008;5.432;2023-05-21T05:57:04;101816.0;;;36.44;21.03
59654;BME280;66556;52.008;5.432;2023-05-21T05:58:41;101811.0;;;36.78;20.63
59654;BME280;66556;52.008;5.432;2023-05-21T06:01:54;101806.0;;;36.85;20.75
59654;BME280;66556;52.008;5.432;2023-05-21T06:03:30;101808.0;;;37.14;20.23
59654;BME280;66556;52.008;5.432;2023-05-21T06:05:06;101805.0;;;37.28;20.16
59654;BME280;66556;52.008;5.432;2023-05-21T06:08:19;101799.0;;;37.03;20.12
59654;BME280;66556;52.008;5.432;2023-05-21T06:09:55;101799.0;;;37.12;20.16
59654;BME280;66556;52.008;5.432;2023-05-21T06:11:31;101800.0;;;37.25;20.13
59654;BME280;66556;52.008;5.432;2023-05-21T06:14:44;101797.0;;;37.33;20.05
59654;BME280;66556;52.008;5.432;2023-05-21T06:16:20;101794.0;;;37.43;19.87
59654;BME280;66556;52.008;5.432;2023-05-21T06:17:56;101801.0;;;36.99;20.34
59654;BME280;66556;52.008;5.432;2023-05-21T06:19:32;101801.0;;;36.99;20.18
59654;BME280;66556;52.008;5.432;2023-05-21T06:22:45;101805.0;;;37.72;19.71
59654;BME280;66556;52.008;5.432;2023-05-21T06:24:21;101805.0;;;37.99;19.8
59654;BME280;66556;52.008;5.432;2023-05-21T06:25:57;101806.0;;;37.43;20.04
59654;BME280;66556;52.008;5.432;2023-05-21T06:29:09;101802.0;;;37.42;20.25
59654;BME280;66556;52.008;5.432;2023-05-21T06:30:46;101799.0;;;37.14;20.23
59654;BME280;66556;52.008;5.432;2023-05-21T06:32:23;101796.0;;;37.46;20.22
59654;BME280;66556;52.008;5.432;2023-05-21T06:35:36;101805.0;;;37.44;20.04
59654;BME280;66556;52.008;5.432;2023-05-21T06:37:12;101803.0;;;37.53;19.98
59654;BME280;66556;52.008;5.432;2023-05-21T06:38:49;101799.0;;;36.74;20.58
59654;BME280;66556;52.008;5.432;2023-05-21T06:40:25;101797.0;;;37.21;20.25
59654;BME280;66556;52.008;5.432;2023-05-21T06:43:37;101798.0;;;37.14;20.3
59654;BME280;66556;52.008;5.432;2023-05-21T06:45:13;101797.0;;;37.24;20.28
59654;BME280;66556;52.008;5.432;2023-05-21T06:46:50;101797.0;;;36.6;20.77
59654;BME280;66556;52.008;5.432;2023-05-21T06:50:03;101801.0;;;37.03;20.69
59654;BME280;66556;52.008;5.432;2023-05-21T06:51:40;101793.0;;;37.33;20.2
59654;BME280;66556;52.008;5.432;2023-05-21T06:53:16;101796.0;;;37.18;20.25
59654;BME280;66556;52.008;5.432;2023-05-21T06:56:29;101787.0;;;37.22;20.38
59654;BME280;66556;52.008;5.432;2023-05-21T06:58:06;101788.0;;;37.85;20.02
59654;BME280;66556;52.008;5.432;2023-05-21T06:59:42;101789.0;;;36.87;20.6
59654;BME280;66556;52.008;5.432;2023-05-21T07:01:18;101792.0;;;37.71;20.13
59654;BME280;66556;52.008;5.432;2023-05-21T07:04:30;101788.0;;;37.74;20.2
59654;BME280;66556;52.008;5.432;2023-05-21T07:06:07;101788.0;;;37.99;20.09
59654;BME280;66556;52.008;5.432;2023-05-21T07:07:43;101788.0;;;37.64;19.97
59654;BME280;66556;52.008;5.432;2023-05-21T07:10:55;101790.0;;;37.86;19.93
59654;BME280;66556;52.008;5.432;2023-05-21T07:12:31;101786.0;;;37.64;19.81
59654;BME280;66556;52.008;5.432;2023-05-21T07:14:08;101791.0;;;37.17;20.53
59654;BME280;66556;52.008;5.432;2023-05-21T07:17:20;101791.0;;;38.07;19.89
59654;BME280;66556;52.008;5.432;2023-05-21T07:18:56;101787.0;;;38.86;19.31
59654;BME280;66556;52.008;5.432;2023-05-21T07:20:32;101791.0;;;38.44;19.55
59654;BME280;66556;52.008;5.432;2023-05-21T07:23:45;101794.0;;;38.67;19.43
59654;BME280;66556;52.008;5.432;2023-05-21T07:25:22;101798.0;;;38.64;19.41
59654;BME280;66556;52.008;5.432;2023-05-21T07:26:59;101795.0;;;37.92;19.71
59654;BME280;66556;52.008;5.432;2023-05-21T07:28:35;101796.0;;;38.68;19.09
59654;BME280;66556;52.008;5.432;2023-05-21T07:31:50;101797.0;;;39.03;18.86
59654;BME280;66556;52.008;5.432;2023-05-21T07:33:26;101801.0;;;38.96;19.11
59654;BME280;66556;52.008;5.432;2023-05-21T07:35:05;101796.0;;;38.99;18.84
59654;BME280;66556;52.008;5.432;2023-05-21T07:38:17;101794.0;;;38.25;19.39
59654;BME280;66556;52.008;5.432;2023-05-21T07:39:56;101794.0;;;38.89;18.89
59654;BME280;66556;52.008;5.432;2023-05-21T07:41:33;101799.0;;;38.14;19.5
59654;BME280;66556;52.008;5.432;2023-05-21T07:43:11;101802.0;;;38.57;19.57
59654;BME280;66556;52.008;5.432;2023-05-21T07:46:23;101797.0;;;39.08;18.66
59654;BME280;66556;52.008;5.432;2023-05-21T07:47:59;101792.0;;;38.46;19.5
59654;BME280;66556;52.008;5.432;2023-05-21T07:49:35;101788.0;;;38.1;19.38
59654;BME280;66556;52.008;5.432;2023-05-21T07:52:48;101790.0;;;38.24;19.45
59654;BME280;66556;52.008;5.432;2023-05-21T07:54:24;101786.0;;;38.22;19.66
59654;BME280;66556;52.008;5.432;2023-05-21T07:56:00;101785.0;;;38.5;19.66
59654;BME280;66556;52.008;5.432;2023-05-21T07:59:15;101784.0;;;38.33;19.59
59654;BME280;66556;52.008;5.432;2023-05-21T08:00:51;101787.0;;;38.56;19.34
59654;BME280;66556;52.008;5.432;2023-05-21T08:02:27;101788.0;;;38.39;19.47
59654;BME280;66556;52.008;5.432;2023-05-21T08:04:03;101786.0;;;38.1;19.79
59654;BME280;66556;52.008;5.432;2023-05-21T08:07:16;101778.0;;;38.56;19.41
59654;BME280;66556;52.008;5.432;2023-05-21T08:08:52;101781.0;;;38.97;18.98
59654;BME280;66556;52.008;5.432;2023-05-21T08:10:29;101775.0;;;38.79;19.46
59654;BME280;66556;52.008;5.432;2023-05-21T08:13:42;101771.0;;;39.21;18.88
59654;BME280;66556;52.008;5.432;2023-05-21T08:15:19;101772.0;;;39.04;19.07
59654;BME280;66556;52.008;5.432;2023-05-21T08:16:55;101767.0;;;38.81;19.38
59654;BME280;66556;52.008;5.432;2023-05-21T08:20:08;101771.0;;;39.18;18.95
59654;BME280;66556;52.008;5.432;2023-05-21T08:21:44;101769.0;;;39.78;18.89
59654;BME280;66556;52.008;5.432;2023-05-21T08:23:21;101773.0;;;38.96;18.97
59654;BME280;66556;52.008;5.432;2023-05-21T08:26:33;101773.0;;;39.31;19.14
59654;BME280;66556;52.008;5.432;2023-05-21T08:28:09;101772.0;;;38.72;19.43
59654;BME280;66556;52.008;5.432;2023-05-21T08:29:45;101776.0;;;38.24;19.84
59654;BME280;66556;52.008;5.432;2023-05-21T08:31:21;101778.0;;;38.9;19.28
59654;BME280;66556;52.008;5.432;2023-05-21T08:34:34;101773.0;;;39.35;18.84
59654;BME280;66556;52.008;5.432;2023-05-21T08:36:10;101769.0;;;39.01;19.0
59654;BME280;66556;52.008;5.432;2023-05-21T08:37:46;101770.0;;;39.35;18.91
59654;BME280;66556;52.008;5.432;2023-05-21T08:40:59;101773.0;;;39.14;19.02
59654;BME280;66556;52.008;5.432;2023-05-21T08:42:39;101773.0;;;39.81;18.86
59654;BME280;66556;52.008;5.432;2023-05-21T08:44:19;101771.0;;;39.64;18.56
59654;BME280;66556;52.008;5.432;2023-05-21T08:45:59;101774.0;;;40.21;18.34
59654;BME280;66556;52.008;5.432;2023-05-21T08:49:21;101769.0;;;39.99;18.41
59654;BME280;66556;52.008;5.432;2023-05-21T08:51:02;101773.0;;;39.61;18.68
59654;BME280;66556;52.008;5.432;2023-05-21T08:52:39;101766.0;;;39.99;18.43
59654;BME280;66556;52.008;5.432;2023-05-21T08:54:16;101772.0;;;40.04;18.55
59654;BME280;66556;52.008;5.432;2023-05-21T08:57:30;101767.0;;;40.35;18.41
59654;BME280;66556;52.008;5.432;2023-05-21T08:59:07;101764.0;;;40.76;18.27
59654;BME280;66556;52.008;5.432;2023-05-21T09:00:44;101763.0;;;41.1;18.18
59654;BME280;66556;52.008;5.432;2023-05-21T09:03:58;101763.0;;;40.62;17.88
59654;BME280;66556;52.008;5.432;2023-05-21T09:05:38;101766.0;;;41.42;17.73
59654;BME280;66556;52.008;5.432;2023-05-21T09:07:16;101765.0;;;41.38;17.68
59654;BME280;66556;52.008;5.432;2023-05-21T09:10:40;101767.0;;;40.6;17.91
59654;BME280;66556;52.008;5.432;2023-05-21T09:12:22;101771.0;;;40.56;18.05
59654;BME280;66556;52.008;5.432;2023-05-21T09:13:59;101764.0;;;40.65;18.39
59654;BME280;66556;52.008;5.432;2023-05-21T09:15:35;101763.0;;;40.69;17.84
59654;BME280;66556;52.008;5.432;2023-05-21T09:18:49;101753.0;;;42.13;17.32
59654;BME280;66556;52.008;5.432;2023-05-21T09:20:27;101757.0;;;41.38;17.59
59654;BME280;66556;52.008;5.432;2023-05-21T09:22:04;101753.0;;;40.6;17.87
59654;BME280;66556;52.008;5.432;2023-05-21T09:23:40;101746.0;;;40.65;17.84
59654;BME280;66556;52.008;5.432;2023-05-21T09:27:00;101746.0;;;40.78;17.77
59654;BME280;66556;52.008;5.432;2023-05-21T09:28:36;101743.0;;;41.13;17.54
59654;BME280;66556;52.008;5.432;2023-05-21T09:30:14;101744.0;;;41.07;18.05
59654;BME280;66556;52.008;5.432;2023-05-21T09:33:27;101741.0;;;41.78;17.59
59654;BME280;66556;52.008;5.432;2023-05-21T09:35:06;101742.0;;;41.52;17.75
59654;BME280;66556;52.008;5.432;2023-05-21T09:36:43;101738.0;;;41.83;17.31
59654;BME280;66556;52.008;5.432;2023-05-21T09:38:21;101736.0;;;40.39;17.95
59654;BME280;66556;52.008;5.432;2023-05-21T09:41:35;101736.0;;;41.99;17.25
59654;BME280;66556;52.008;5.432;2023-05-21T09:43:13;101730.0;;;41.5;17.2
59654;BME280;66556;52.008;5.432;2023-05-21T09:44:50;101726.0;;;42.86;16.78
59654;BME280;66556;52.008;5.432;2023-05-21T09:48:02;101727.0;;;42.35;16.68
59654;BME280;66556;52.008;5.432;2023-05-21T09:49:42;101730.0;;;41.79;17.11
59654;BME280;66556;52.008;5.432;2023-05-21T09:51:19;101724.0;;;42.35;16.61
59654;BME280;66556;52.008;5.432;2023-05-21T09:52:56;101722.0;;;42.18;16.61
59654;BME280;66556;52.008;5.432;2023-05-21T09:56:09;101721.0;;;41.87;16.86
59654;BME280;66556;52.008;5.432;2023-05-21T09:57:46;101710.0;;;42.09;17.0
59654;BME280;66556;52.008;5.432;2023-05-21T09:59:24;101712.0;;;42.11;16.38
59654;BME280;66556;52.008;5.432;2023-05-21T10:02:50;101713.0;;;42.32;16.66
59654;BME280;66556;52.008;5.432;2023-05-21T10:04:30;101713.0;;;43.17;16.29
59654;BME280;66556;52.008;5.432;2023-05-21T10:06:07;101714.0;;;43.46;15.77
59654;BME280;66556;52.008;5.432;2023-05-21T10:07:47;101712.0;;;43.86;15.83
59654;BME280;66556;52.008;5.432;2023-05-21T10:11:04;101710.0;;;43.97;15.67
59654;BME280;66556;52.008;5.432;2023-05-21T10:12:43;101698.0;;;44.77;16.27
59654;BME280;66556;52.008;5.432;2023-05-21T10:14:24;101696.0;;;44.86;15.32
59654;BME280;66556;52.008;5.432;2023-05-21T10:16:04;101701.0;;;43.8;15.91
59654;BME280;66556;52.008;5.432;2023-05-21T10:19:19;101700.0;;;44.04;15.32
59654;BME280;66556;52.008;5.432;2023-05-21T10:20:55;101705.0;;;43.79;15.68
59654;BME280;66556;52.008;5.432;2023-05-21T10:22:34;101703.0;;;43.86;16.0
59654;BME280;66556;52.008;5.432;2023-05-21T10:25:51;101701.0;;;43.34;16.04
59654;BME280;66556;52.008;5.432;2023-05-21T10:27:29;101700.0;;;43.76;15.42
59654;BME280;66556;52.008;5.432;2023-05-21T10:29:07;101693.0;;;43.9;15.82
59654;BME280;66556;52.008;5.432;2023-05-21T10:30:45;101693.0;;;43.98;15.6
59654;BME280;66556;52.008;5.432;2023-05-21T10:34:00;101692.0;;;43.68;15.65
59654;BME280;66556;52.008;5.432;2023-05-21T10:35:39;101691.0;;;44.14;15.58
59654;BME280;66556;52.008;5.432;2023-05-21T10:37:15;101685.0;;;44.27;15.94
59654;BME280;66556;52.008;5.432;2023-05-21T10:38:53;101685.0;;;44.15;15.51
59654;BME280;66556;52.008;5.432;2023-05-21T10:42:20;101680.0;;;44.51;15.13
59654;BME280;66556;52.008;5.432;2023-05-21T10:44:07;101681.0;;;43.78;16.03
59654;BME280;66556;52.008;5.432;2023-05-21T10:46:06;101684.0;;;43.82;15.56
59654;BME280;66556;52.008;5.432;2023-05-21T10:48:04;101678.0;;;45.11;15.22
59654;BME280;66556;52.008;5.432;2023-05-21T10:49:56;101676.0;;;45.1;14.65
59654;BME280;66556;52.008;5.432;2023-05-21T10:51:44;101673.0;;;45.02;14.98
59654;BME280;66556;52.008;5.432;2023-05-21T10:55:26;101676.0;;;45.56;14.55
59654;BME280;66556;52.008;5.432;2023-05-21T10:57:17;101672.0;;;44.64;15.17
59654;BME280;66556;52.008;5.432;2023-05-21T10:59:15;101680.0;;;44.4;15.62
59654;BME280;66556;52.008;5.432;2023-05-21T11:00:56;101677.0;;;44.12;15.36
59654;BME280;66556;52.008;5.432;2023-05-21T11:02:34;101680.0;;;44.48;15.42
59654;BME280;66556;52.008;5.432;2023-05-21T11:04:11;101670.0;;;44.6;15.29
59654;BME280;66556;52.008;5.432;2023-05-21T11:08:01;101672.0;;;44.4;14.96
59654;BME280;66556;52.008;5.432;2023-05-21T11:09:37;101676.0;;;44.36;15.44